createdAt,value
2022-11-14T00:00:33.345Z,8.13
2022-11-14T00:03:18.393Z,8.04
2022-11-14T00:06:06.555Z,8.05
2022-11-14T00:08:51.646Z,8.09
2022-11-14T00:11:37.172Z,8.05
2022-11-14T00:14:22.037Z,8.11
2022-11-14T00:17:07.215Z,8.14
2022-11-14T00:19:52.119Z,8.20
2022-11-14T00:22:37.061Z,8.26
2022-11-14T00:25:22.545Z,8.25
2022-11-14T00:28:08.360Z,8.44
2022-11-14T00:30:53.743Z,8.45
2022-11-14T00:33:38.444Z,8.45
2022-11-14T00:36:23.330Z,8.49
2022-11-14T00:39:13.107Z,8.57
2022-11-14T00:41:58.344Z,8.63
2022-11-14T00:44:43.986Z,8.70
2022-11-14T00:47:29.281Z,8.75
2022-11-14T00:50:15.833Z,8.86
2022-11-14T00:53:00.752Z,8.83
2022-11-14T00:55:45.569Z,8.74
2022-11-14T00:58:30.713Z,8.76
2022-11-14T01:01:16.669Z,8.79
2022-11-14T01:04:02.026Z,8.75
2022-11-14T01:06:47.032Z,8.98
2022-11-14T01:09:32.732Z,8.91
2022-11-14T01:12:17.591Z,8.83
2022-11-14T01:15:03.176Z,8.76
2022-11-14T01:17:48.490Z,8.90
2022-11-14T01:20:33.367Z,8.78
2022-11-14T01:23:18.826Z,8.85
2022-11-14T01:26:07.483Z,8.96
2022-11-14T01:28:53.169Z,8.97
2022-11-14T01:31:37.948Z,8.86
2022-11-14T01:34:23.398Z,8.87
2022-11-14T01:37:08.866Z,8.82
2022-11-14T01:39:54.008Z,8.75
2022-11-14T01:42:39.575Z,8.73
2022-11-14T01:45:49.093Z,8.79
2022-11-14T01:48:34.253Z,8.83
2022-11-14T01:51:23.016Z,8.71
2022-11-14T01:54:16.169Z,8.74
2022-11-14T01:57:04.244Z,8.88
2022-11-14T01:59:52.853Z,8.84
2022-11-14T02:02:38.318Z,8.98
2022-11-14T02:05:23.981Z,9.06
2022-11-14T02:08:13.312Z,9.08
2022-11-14T02:10:58.257Z,9.13
2022-11-14T02:13:43.932Z,9.14
2022-11-14T02:16:29.005Z,9.13
2022-11-14T02:19:15.220Z,9.04
2022-11-14T02:25:04.670Z,8.92
2022-11-14T02:27:50.962Z,8.92
2022-11-14T02:30:36.165Z,9.07
2022-11-14T02:33:20.949Z,9.10
2022-11-14T02:36:06.863Z,9.09
2022-11-14T02:38:52.236Z,8.94
2022-11-14T02:41:37.296Z,8.90
2022-11-14T02:44:22.989Z,8.67
2022-11-14T02:47:08.307Z,8.68
2022-11-14T02:49:53.823Z,8.79
2022-11-14T02:52:38.736Z,8.89
2022-11-14T02:55:23.950Z,9.04
2022-11-14T02:58:09.045Z,9.13
2022-11-14T03:01:19.237Z,9.03
2022-11-14T03:03:59.404Z,8.89
2022-11-14T03:06:44.384Z,8.75
2022-11-14T03:09:29.793Z,8.58
2022-11-14T03:12:18.630Z,8.54
2022-11-14T03:15:07.738Z,8.60
2022-11-14T03:17:52.663Z,8.52
2022-11-14T03:20:38.795Z,8.58
2022-11-14T03:23:24.014Z,8.61
2022-11-14T03:26:10.863Z,8.56
2022-11-14T03:28:55.786Z,8.53
2022-11-14T03:31:40.765Z,8.90
2022-11-14T03:34:25.850Z,9.02
2022-11-14T03:37:11.379Z,8.81
2022-11-14T03:39:56.719Z,8.71
2022-11-14T03:42:42.024Z,8.89
2022-11-14T03:45:27.237Z,8.89
2022-11-14T03:48:13.097Z,8.96
2022-11-14T03:50:58.405Z,9.01
2022-11-14T03:53:43.340Z,9.16
2022-11-14T03:56:28.401Z,9.10
2022-11-14T03:59:13.199Z,9.04
2022-11-14T04:01:58.326Z,8.99
2022-11-14T04:04:43.087Z,8.99
2022-11-14T04:07:27.870Z,8.83
2022-11-14T04:10:13.065Z,8.89
2022-11-14T04:12:57.812Z,8.83
2022-11-14T04:15:42.871Z,8.77
2022-11-14T04:18:28.633Z,8.87
2022-11-14T04:21:13.982Z,8.98
2022-11-14T04:23:58.728Z,8.96
2022-11-14T04:26:43.454Z,9.05
2022-11-14T04:29:28.492Z,9.02
2022-11-14T04:32:13.804Z,9.04
2022-11-14T04:34:58.730Z,8.86
2022-11-14T04:37:44.027Z,8.87
2022-11-14T04:40:29.310Z,8.91
2022-11-14T04:43:14.031Z,8.92
2022-11-14T04:45:59.007Z,8.97
2022-11-14T04:48:43.864Z,8.92
2022-11-14T04:51:29.026Z,8.98
2022-11-14T04:54:14.254Z,8.90
2022-11-14T04:56:59.375Z,8.64
2022-11-14T04:59:44.112Z,9.05
2022-11-14T05:02:32.335Z,9.20
2022-11-14T05:05:17.114Z,9.36
2022-11-14T05:08:02.206Z,9.44
2022-11-14T05:10:47.334Z,9.15
2022-11-14T05:13:32.600Z,8.99
2022-11-14T05:16:17.862Z,8.91
2022-11-14T05:19:02.664Z,8.90
2022-11-14T05:21:47.843Z,9.06
2022-11-14T05:24:33.457Z,9.20
2022-11-14T05:27:18.382Z,9.18
2022-11-14T05:30:03.903Z,9.28
2022-11-14T05:32:51.397Z,9.29
2022-11-14T05:35:36.089Z,9.33
2022-11-14T05:38:21.908Z,9.21
2022-11-14T05:41:09.699Z,9.34
2022-11-14T05:43:55.102Z,9.29
2022-11-14T05:46:42.715Z,9.21
2022-11-14T05:49:28.144Z,9.31
2022-11-14T05:52:15.374Z,9.22
2022-11-14T05:55:01.000Z,9.31
2022-11-14T05:57:48.651Z,9.46
2022-11-14T06:00:40.895Z,9.42
2022-11-14T06:03:32.459Z,9.28
2022-11-14T06:06:19.620Z,9.17
2022-11-14T06:09:04.676Z,9.06
2022-11-14T06:11:50.569Z,9.00
2022-11-14T06:14:35.707Z,9.07
2022-11-14T06:17:20.635Z,8.99
2022-11-14T06:20:07.099Z,9.06
2022-11-14T06:22:54.211Z,9.17
2022-11-14T06:25:39.327Z,9.29
2022-11-14T06:28:24.098Z,9.02
2022-11-14T06:31:08.916Z,8.77
2022-11-14T06:33:54.287Z,8.82
2022-11-14T06:36:39.427Z,8.94
2022-11-14T06:39:24.741Z,9.11
2022-11-14T06:42:09.969Z,9.12
2022-11-14T06:44:54.865Z,9.02
2022-11-14T06:47:41.869Z,8.87
2022-11-14T06:50:26.941Z,8.83
2022-11-14T06:53:12.061Z,8.96
2022-11-14T06:56:04.945Z,9.25
2022-11-14T06:58:50.199Z,9.31
2022-11-14T07:01:34.991Z,9.09
2022-11-14T07:04:19.911Z,9.17
2022-11-14T07:07:05.245Z,9.21
2022-11-14T07:09:50.341Z,9.25
2022-11-14T07:12:35.538Z,9.29
2022-11-14T07:15:20.622Z,9.16
2022-11-14T07:18:05.783Z,9.03
2022-11-14T07:20:57.841Z,9.00
2022-11-14T07:23:43.501Z,9.02
2022-11-14T07:26:28.985Z,9.08
2022-11-14T07:29:14.170Z,9.04
2022-11-14T07:31:59.514Z,9.20
2022-11-14T07:34:45.267Z,9.13
2022-11-14T07:37:30.837Z,9.29
2022-11-14T07:40:17.139Z,9.24
2022-11-14T07:43:03.399Z,9.49
2022-11-14T07:45:49.401Z,9.42
2022-11-14T07:48:35.059Z,9.40
2022-11-14T07:51:20.335Z,9.29
2022-11-14T07:54:05.646Z,9.27
2022-11-14T07:56:50.959Z,9.37
2022-11-14T07:59:36.235Z,9.25
2022-11-14T08:02:21.408Z,9.23
2022-11-14T08:05:07.115Z,9.20
2022-11-14T08:07:52.583Z,9.15
2022-11-14T08:10:37.522Z,9.33
2022-11-14T08:13:32.299Z,9.43
2022-11-14T08:16:18.218Z,9.50
2022-11-14T08:19:03.227Z,9.45
2022-11-14T08:21:48.472Z,9.42
2022-11-14T08:24:33.314Z,9.66
2022-11-14T08:27:18.138Z,9.61
2022-11-14T08:30:03.785Z,9.71
2022-11-14T08:32:50.559Z,9.87
2022-11-14T08:35:35.705Z,9.89
2022-11-14T08:38:21.122Z,10.05
2022-11-14T08:41:06.711Z,10.36
2022-11-14T08:43:51.684Z,10.37
2022-11-14T08:46:39.137Z,10.27
2022-11-14T08:49:24.039Z,10.24
2022-11-14T08:52:13.715Z,10.21
2022-11-14T08:55:02.065Z,10.50
2022-11-14T08:57:49.698Z,10.24
2022-11-14T09:00:35.271Z,9.92
2022-11-14T09:03:20.044Z,10.28
2022-11-14T09:06:05.586Z,10.78
2022-11-14T09:08:50.466Z,10.81
2022-11-14T09:11:35.449Z,10.59
2022-11-14T09:14:20.427Z,10.11
2022-11-14T09:17:06.225Z,10.23
2022-11-14T09:19:51.778Z,10.26
2022-11-14T09:22:36.867Z,10.33
2022-11-14T09:25:22.313Z,10.60
2022-11-14T09:28:08.755Z,10.50
2022-11-14T09:31:04.637Z,10.45
2022-11-14T09:33:50.181Z,10.47
2022-11-14T09:36:35.632Z,10.61
2022-11-14T09:39:20.662Z,10.95
2022-11-14T09:42:37.751Z,10.79
2022-11-14T09:45:22.761Z,10.92
2022-11-14T09:48:13.802Z,10.83
2022-11-14T09:51:13.135Z,11.02
2022-11-14T09:54:07.961Z,10.72
2022-11-14T09:56:53.841Z,10.78
2022-11-14T09:59:38.870Z,10.74
2022-11-14T10:02:31.844Z,10.77
2022-11-14T10:05:45.578Z,10.58
2022-11-14T10:08:50.014Z,10.91
2022-11-14T10:11:39.473Z,11.25
2022-11-14T10:14:27.574Z,11.24
2022-11-14T10:17:23.092Z,11.22
2022-11-14T10:20:43.878Z,11.32
2022-11-14T10:23:43.103Z,11.36
2022-11-14T10:26:35.049Z,11.65
2022-11-14T10:30:10.166Z,11.71
2022-11-14T10:33:04.586Z,11.83
2022-11-14T10:36:12.311Z,11.69
2022-11-14T10:39:40.261Z,11.94
2022-11-14T10:42:36.194Z,12.20
2022-11-14T10:45:37.204Z,12.05
2022-11-14T10:48:41.446Z,12.37
2022-11-14T10:51:39.613Z,12.59
2022-11-14T10:54:40.463Z,12.67
2022-11-14T10:57:28.223Z,12.76
2022-11-14T11:00:19.045Z,12.75
2022-11-14T11:03:04.527Z,12.69
2022-11-14T11:05:51.395Z,12.54
2022-11-14T11:09:02.019Z,12.64
2022-11-14T11:12:02.494Z,12.53
2022-11-14T11:14:52.771Z,12.83
2022-11-14T11:17:43.008Z,12.62
2022-11-14T11:20:40.552Z,12.53
2022-11-14T11:23:27.039Z,12.37
2022-11-14T11:26:31.740Z,12.43
2022-11-14T11:29:19.215Z,12.63
2022-11-14T11:32:04.503Z,12.69
2022-11-14T11:34:51.442Z,12.53
2022-11-14T11:37:41.719Z,12.73
2022-11-14T11:40:28.386Z,12.69
2022-11-14T11:43:40.656Z,12.66
2022-11-14T11:46:36.032Z,12.34
2022-11-14T11:49:29.538Z,12.52
2022-11-14T11:52:39.208Z,12.47
2022-11-14T11:55:27.844Z,12.62
2022-11-14T11:58:35.698Z,12.67
2022-11-14T12:01:21.144Z,13.00
2022-11-14T12:04:06.511Z,13.09
2022-11-14T12:07:11.763Z,13.00
2022-11-14T12:10:13.888Z,13.15
2022-11-14T12:13:07.860Z,13.24
2022-11-14T12:16:19.477Z,13.25
2022-11-14T12:19:04.840Z,13.55
2022-11-14T12:22:27.801Z,13.73
2022-11-14T12:25:28.429Z,13.72
2022-11-14T12:28:19.654Z,14.12
2022-11-14T12:31:09.870Z,14.25
2022-11-14T12:34:04.287Z,14.42
2022-11-14T12:36:50.527Z,14.77
2022-11-14T12:39:35.554Z,14.80
2022-11-14T12:42:24.000Z,15.01
2022-11-14T12:45:39.452Z,14.92
2022-11-14T12:48:28.367Z,14.99
2022-11-14T12:51:45.633Z,15.25
2022-11-14T12:54:45.630Z,15.25
2022-11-14T12:58:06.499Z,15.34
2022-11-14T13:00:59.227Z,14.92
2022-11-14T13:04:02.466Z,14.75
2022-11-14T13:07:05.483Z,14.63
2022-11-14T13:10:09.088Z,15.05
2022-11-14T13:13:25.583Z,15.32
2022-11-14T13:16:49.018Z,15.27
2022-11-14T13:19:54.923Z,15.51
2022-11-14T13:22:42.187Z,15.43
2022-11-14T13:25:27.459Z,15.49
2022-11-14T13:28:38.436Z,15.61
2022-11-14T13:31:44.800Z,15.44
2022-11-14T13:34:45.925Z,15.53
2022-11-14T13:38:12.685Z,15.42
2022-11-14T13:41:46.166Z,15.55
2022-11-14T13:44:50.974Z,15.18
2022-11-14T13:47:48.327Z,15.21
2022-11-14T13:50:36.754Z,15.16
2022-11-14T13:53:27.520Z,15.11
2022-11-14T13:56:30.571Z,15.13
2022-11-14T13:59:50.896Z,15.14
2022-11-14T14:02:53.829Z,15.20
2022-11-14T14:06:10.892Z,15.14
2022-11-14T14:09:14.968Z,15.14
2022-11-14T14:12:18.266Z,15.02
2022-11-14T14:15:31.285Z,14.87
2022-11-14T14:18:48.772Z,15.01
2022-11-14T14:21:47.415Z,14.94
2022-11-14T14:24:41.488Z,14.83
2022-11-14T14:27:36.733Z,14.69
2022-11-14T14:30:22.173Z,14.29
2022-11-14T14:33:08.023Z,14.13
2022-11-14T14:35:53.870Z,14.02
2022-11-14T14:38:40.605Z,13.86
2022-11-14T14:41:31.217Z,13.85
2022-11-14T14:44:31.472Z,13.83
2022-11-14T14:47:39.006Z,13.65
2022-11-14T14:50:28.306Z,13.57
2022-11-14T14:53:25.035Z,13.38
2022-11-14T14:56:24.297Z,13.20
2022-11-14T14:59:22.502Z,13.10
2022-11-14T15:02:17.940Z,12.92
2022-11-14T15:05:04.569Z,12.73
2022-11-14T15:07:52.887Z,12.70
2022-11-14T15:10:38.889Z,12.46
2022-11-14T15:13:25.868Z,12.25
2022-11-14T15:16:11.655Z,12.02
2022-11-14T15:18:57.975Z,11.83
2022-11-14T15:21:43.440Z,11.62
2022-11-14T15:24:29.900Z,11.32
2022-11-14T15:27:18.248Z,11.01
2022-11-14T15:30:07.496Z,10.77
2022-11-14T15:32:55.946Z,10.59
2022-11-14T15:35:41.304Z,10.38
2022-11-14T15:38:43.604Z,10.25
2022-11-14T15:41:33.129Z,10.15
2022-11-14T15:44:32.999Z,10.05
2022-11-14T15:47:26.577Z,10.01
2022-11-14T15:50:12.132Z,9.88
2022-11-14T15:53:03.736Z,9.81
2022-11-14T15:55:49.996Z,9.89
2022-11-14T15:58:36.382Z,9.72
2022-11-14T16:01:25.810Z,9.74
2022-11-14T16:04:15.860Z,9.77
2022-11-14T16:07:04.334Z,9.80
2022-11-14T16:09:49.922Z,9.80
2022-11-14T16:12:35.999Z,9.75
2022-11-14T16:15:21.630Z,9.64
2022-11-14T16:18:07.027Z,9.54
2022-11-14T16:20:58.219Z,9.43
2022-11-14T16:23:43.484Z,9.22
2022-11-14T16:26:29.760Z,9.14
2022-11-14T16:29:15.523Z,9.13
2022-11-14T16:32:01.217Z,9.28
2022-11-14T16:34:46.192Z,9.41
2022-11-14T16:37:32.619Z,9.39
2022-11-14T16:40:24.949Z,9.41
2022-11-14T16:43:13.355Z,9.45
2022-11-14T16:46:02.986Z,9.41
2022-11-14T16:48:48.669Z,9.56
2022-11-14T16:51:48.332Z,9.70
2022-11-14T16:54:35.284Z,9.76
2022-11-14T16:57:20.827Z,9.69
2022-11-14T17:00:08.806Z,9.61
2022-11-14T17:02:54.439Z,9.59
2022-11-14T17:05:49.099Z,9.48
2022-11-14T17:08:34.691Z,9.47
2022-11-14T17:11:19.860Z,9.45
2022-11-14T17:14:05.526Z,9.46
2022-11-14T17:16:50.930Z,9.47
2022-11-14T17:19:45.117Z,9.35
2022-11-14T17:22:30.538Z,9.26
2022-11-14T17:25:16.561Z,9.20
2022-11-14T17:28:03.142Z,9.21
2022-11-14T17:30:48.814Z,9.23
2022-11-14T17:33:34.658Z,9.26
2022-11-14T17:36:21.795Z,9.21
2022-11-14T17:39:06.944Z,9.21
2022-11-14T17:41:52.091Z,9.24
2022-11-14T17:44:37.128Z,9.20
2022-11-14T17:47:22.440Z,9.12
2022-11-14T17:50:08.939Z,9.06
2022-11-14T17:52:54.235Z,8.97
2022-11-14T17:55:39.403Z,8.94
2022-11-14T17:58:30.822Z,8.84
2022-11-14T18:01:20.636Z,8.78
2022-11-14T18:04:06.954Z,8.76
2022-11-14T18:06:54.587Z,8.81
2022-11-14T18:09:41.268Z,8.86
2022-11-14T18:12:27.659Z,8.83
2022-11-14T18:15:14.830Z,8.81
2022-11-14T18:18:01.175Z,8.80
2022-11-14T18:20:47.182Z,8.72
2022-11-14T18:23:32.760Z,8.65
2022-11-14T18:26:21.168Z,8.62
2022-11-14T18:29:07.410Z,8.54
2022-11-14T18:31:53.180Z,8.49
2022-11-14T18:34:40.895Z,8.33
2022-11-14T18:37:29.965Z,8.21
2022-11-14T18:40:16.933Z,8.10
2022-11-14T18:43:03.389Z,7.95
2022-11-14T18:45:52.875Z,7.86
2022-11-14T18:48:40.131Z,7.90
2022-11-14T18:51:28.641Z,7.87
2022-11-14T18:54:16.068Z,7.89
2022-11-14T18:57:02.868Z,7.86
2022-11-14T18:59:51.622Z,7.86
2022-11-14T19:02:37.234Z,7.82
2022-11-14T19:05:23.334Z,7.82
2022-11-14T19:08:09.155Z,7.78
2022-11-14T19:11:03.994Z,7.59
2022-11-14T19:13:51.503Z,7.74
2022-11-14T19:16:38.859Z,7.82
2022-11-14T19:19:24.884Z,7.79
2022-11-14T19:22:10.303Z,7.89
2022-11-14T19:24:57.815Z,7.86
2022-11-14T19:30:44.897Z,7.82
2022-11-14T19:33:32.637Z,7.76
2022-11-14T19:36:45.323Z,7.59
2022-11-14T19:39:30.360Z,7.80
2022-11-14T19:42:17.250Z,7.81
2022-11-14T19:45:04.231Z,7.79
2022-11-14T19:47:51.448Z,7.75
2022-11-14T19:50:39.210Z,7.72
2022-11-14T19:53:26.679Z,7.78
2022-11-14T19:56:18.341Z,7.83
2022-11-14T19:59:11.005Z,7.85
2022-11-14T20:02:00.493Z,7.82
2022-11-14T20:04:48.018Z,7.87
2022-11-14T20:07:37.845Z,7.86
2022-11-14T20:10:24.962Z,7.83
2022-11-14T20:13:11.925Z,7.85
2022-11-14T20:16:00.553Z,7.76
2022-11-14T20:18:58.637Z,7.62
2022-11-14T20:21:46.575Z,7.58
2022-11-14T20:24:34.322Z,7.58
2022-11-14T20:27:21.774Z,7.37
2022-11-14T20:30:09.096Z,7.33
2022-11-14T20:32:56.548Z,7.29
2022-11-14T20:35:45.047Z,7.30
2022-11-14T20:38:33.255Z,7.22
2022-11-14T20:41:21.174Z,7.24
2022-11-14T20:44:08.966Z,7.27
2022-11-14T20:46:57.359Z,7.29
2022-11-14T20:49:47.178Z,7.23
2022-11-14T20:52:35.398Z,7.29
2022-11-14T20:55:21.702Z,7.32
2022-11-14T20:58:09.166Z,7.22
2022-11-14T21:00:56.801Z,6.80
2022-11-14T21:03:44.044Z,6.77
2022-11-14T21:06:30.610Z,6.77
2022-11-14T21:09:19.461Z,6.74
2022-11-14T21:12:06.961Z,6.72
2022-11-14T21:14:53.893Z,6.71
2022-11-14T21:17:40.756Z,6.70
2022-11-14T21:20:27.523Z,6.70
2022-11-14T21:23:14.550Z,6.69
2022-11-14T21:26:11.188Z,6.71
2022-11-14T21:29:02.227Z,6.85
2022-11-14T21:31:49.438Z,6.77
2022-11-14T21:34:36.372Z,6.74
2022-11-14T21:37:22.967Z,6.66
2022-11-14T21:40:09.984Z,6.64
2022-11-14T21:42:56.565Z,6.59
2022-11-14T21:45:43.198Z,6.63
2022-11-14T21:48:31.443Z,6.61
2022-11-14T21:51:24.120Z,6.47
2022-11-14T21:54:11.291Z,6.36
2022-11-14T21:57:03.142Z,6.28
2022-11-14T21:59:52.475Z,6.22
2022-11-14T22:02:57.823Z,6.11
2022-11-14T22:05:44.399Z,5.98
2022-11-14T22:08:31.189Z,5.98
2022-11-14T22:11:18.086Z,5.96
2022-11-14T22:14:05.084Z,5.90
2022-11-14T22:16:51.941Z,5.87
2022-11-14T22:19:38.437Z,5.88
2022-11-14T22:22:25.286Z,5.90
2022-11-14T22:25:11.944Z,5.91
2022-11-14T22:27:58.152Z,5.96
2022-11-14T22:30:45.015Z,5.96
2022-11-14T22:33:34.219Z,5.97
2022-11-14T22:36:25.623Z,5.99
2022-11-14T22:39:12.023Z,6.01
2022-11-14T22:41:58.789Z,6.04
2022-11-14T22:44:45.345Z,6.00
2022-11-14T22:47:31.984Z,6.06
2022-11-14T22:50:19.185Z,6.09
2022-11-14T22:53:05.862Z,6.06
2022-11-14T22:55:52.721Z,6.07
2022-11-14T22:58:41.785Z,6.10
2022-11-14T23:01:31.536Z,6.06
2022-11-14T23:04:18.260Z,6.05
2022-11-14T23:07:04.885Z,5.98
2022-11-14T23:09:51.567Z,5.99
2022-11-14T23:12:38.287Z,5.94
2022-11-14T23:15:25.507Z,5.92
2022-11-14T23:18:12.852Z,5.97
2022-11-14T23:21:07.017Z,6.02
2022-11-14T23:23:55.263Z,5.94
2022-11-14T23:26:41.697Z,5.98
2022-11-14T23:29:28.581Z,5.93
2022-11-14T23:32:15.458Z,5.83
2022-11-14T23:35:01.729Z,5.91
2022-11-14T23:37:48.437Z,5.93
2022-11-14T23:40:34.961Z,5.94
2022-11-14T23:43:21.624Z,5.80
2022-11-14T23:46:08.391Z,5.75
2022-11-14T23:48:55.240Z,5.79
2022-11-14T23:51:41.658Z,5.69
2022-11-14T23:54:28.808Z,5.62
2022-11-14T23:57:15.687Z,5.72
